AMX319 MMMY-MMGL
Flight info
| Callsign | AMX319 |
|---|---|
| Flight time | 1h 5m |
| Altitude | 36000 |
| Route | URTOB1A URTOB UJ11 MEZCA MEZCA1B |
| Aircraft | B738/M-SDE2E3FGHIRWXY/LB1 |
Departure
| Time | 2026-04-22 01:34 |
|---|---|
| Airport | Monterrey International Airport (MMMY) |
Arrival
| Time | 2026-04-22 02:39 |
|---|---|
| Airport | Guadalajara International Airport (MMGL) |
| Time | Latitude | Longitude | Altitude | Speed | Heading |
|---|---|---|---|---|---|
| 2026-04-22 01:17 | 25.77930 | -100.11434 | 1330 ft | 0 kts | 211° |
| 2026-04-22 01:28 | 25.77932 | -100.11432 | 1330 ft | 3 kts | 212° |
| 2026-04-22 01:28 | 25.77954 | -100.11416 | 1330 ft | 4 kts | 214° |
| 2026-04-22 01:28 | 25.77976 | -100.11399 | 1330 ft | 4 kts | 223° |
| 2026-04-22 01:28 | 25.77992 | -100.11377 | 1331 ft | 4 kts | 253° |
| 2026-04-22 01:29 | 25.77992 | -100.11352 | 1330 ft | 2 kts | 301° |
| 2026-04-22 01:29 | 25.77992 | -100.11351 | 1330 ft | 1 kts | 301° |
| 2026-04-22 01:31 | 25.77996 | -100.11358 | 1332 ft | 4 kts | 301° |
| 2026-04-22 01:31 | 25.78025 | -100.11412 | 1330 ft | 13 kts | 301° |
| 2026-04-22 01:31 | 25.78102 | -100.11553 | 1332 ft | 17 kts | 301° |
| 2026-04-22 01:31 | 25.78162 | -100.11663 | 1330 ft | 16 kts | 301° |
| 2026-04-22 01:32 | 25.78201 | -100.11735 | 1332 ft | 16 kts | 301° |
| 2026-04-22 01:32 | 25.78279 | -100.11797 | 1330 ft | 15 kts | 24° |
| 2026-04-22 01:32 | 25.78322 | -100.11773 | 1330 ft | 2 kts | 28° |
| 2026-04-22 01:32 | 25.78337 | -100.11763 | 1335 ft | 4 kts | 31° |
| 2026-04-22 01:33 | 25.78387 | -100.11712 | 1330 ft | 15 kts | 79° |
| 2026-04-22 01:33 | 25.78318 | -100.11542 | 1330 ft | 49 kts | 121° |
| 2026-04-22 01:33 | 25.77992 | -100.10947 | 1330 ft | 129 kts | 121° |
| 2026-04-22 01:33 | 25.77429 | -100.09910 | 1567 ft | 175 kts | 121° |
| 2026-04-22 01:34 | 25.76732 | -100.08692 | 2325 ft | 194 kts | 121° |
| 2026-04-22 01:34 | 25.76026 | -100.07421 | 3389 ft | 194 kts | 120° |
| 2026-04-22 01:34 | 25.75338 | -100.06054 | 3903 ft | 213 kts | 119° |
| 2026-04-22 01:34 | 25.74607 | -100.04558 | 4388 ft | 227 kts | 120° |
| 2026-04-22 01:35 | 25.73676 | -100.03116 | 4977 ft | 236 kts | 143° |
| 2026-04-22 01:35 | 25.72136 | -100.02517 | 5759 ft | 241 kts | 176° |
| 2026-04-22 01:35 | 25.70476 | -100.02841 | 6677 ft | 246 kts | 201° |
| 2026-04-22 01:35 | 25.69075 | -100.03920 | 7665 ft | 248 kts | 224° |
| 2026-04-22 01:36 | 25.67917 | -100.05358 | 8557 ft | 252 kts | 228° |
| 2026-04-22 01:36 | 25.66781 | -100.06858 | 9465 ft | 256 kts | 229° |
| 2026-04-22 01:36 | 25.65601 | -100.08430 | 9986 ft | 275 kts | 230° |
| 2026-04-22 01:36 | 25.64337 | -100.10110 | 10402 ft | 297 kts | 231° |
| 2026-04-22 01:37 | 25.62953 | -100.11945 | 10611 ft | 323 kts | 231° |
| 2026-04-22 01:37 | 25.61458 | -100.13916 | 10886 ft | 343 kts | 231° |
| 2026-04-22 01:37 | 25.59895 | -100.15968 | 11495 ft | 351 kts | 231° |
| 2026-04-22 01:37 | 25.58308 | -100.18045 | 12227 ft | 355 kts | 232° |
| 2026-04-22 01:38 | 25.56703 | -100.20137 | 12991 ft | 358 kts | 232° |
| 2026-04-22 01:38 | 25.55107 | -100.22266 | 13754 ft | 361 kts | 233° |
| 2026-04-22 01:38 | 25.53481 | -100.24397 | 14488 ft | 364 kts | 232° |
| 2026-04-22 01:38 | 25.51826 | -100.26533 | 15197 ft | 367 kts | 232° |
| 2026-04-22 01:39 | 25.50154 | -100.28682 | 15915 ft | 369 kts | 232° |
| 2026-04-22 01:39 | 25.48477 | -100.30857 | 16572 ft | 372 kts | 232° |
| 2026-04-22 01:39 | 25.46803 | -100.33046 | 17279 ft | 373 kts | 233° |
| 2026-04-22 01:39 | 25.45107 | -100.35241 | 17945 ft | 376 kts | 233° |
| 2026-04-22 01:40 | 25.43402 | -100.37459 | 18529 ft | 380 kts | 233° |
| 2026-04-22 01:40 | 25.41677 | -100.39700 | 19074 ft | 385 kts | 233° |
| 2026-04-22 01:40 | 25.39936 | -100.41960 | 19705 ft | 387 kts | 232° |
| 2026-04-22 01:40 | 25.38179 | -100.44219 | 20330 ft | 389 kts | 231° |
| 2026-04-22 01:41 | 25.36153 | -100.46246 | 20807 ft | 398 kts | 222° |
| 2026-04-22 01:41 | 25.34170 | -100.47948 | 21317 ft | 400 kts | 221° |
| 2026-04-22 01:41 | 25.31962 | -100.49820 | 21872 ft | 402 kts | 221° |
| 2026-04-22 01:41 | 25.29732 | -100.51700 | 22345 ft | 405 kts | 221° |
| 2026-04-22 01:42 | 25.27491 | -100.53603 | 22822 ft | 408 kts | 222° |
| 2026-04-22 01:42 | 25.25238 | -100.55534 | 23322 ft | 410 kts | 222° |
| 2026-04-22 01:42 | 25.23016 | -100.57446 | 23814 ft | 412 kts | 222° |
| 2026-04-22 01:42 | 25.20762 | -100.59388 | 24255 ft | 414 kts | 223° |
| 2026-04-22 01:43 | 25.18526 | -100.61315 | 24669 ft | 417 kts | 222° |
| 2026-04-22 01:43 | 25.16237 | -100.63287 | 25126 ft | 418 kts | 223° |
| 2026-04-22 01:43 | 25.13940 | -100.65267 | 25534 ft | 421 kts | 223° |
| 2026-04-22 01:43 | 25.11627 | -100.67262 | 25933 ft | 423 kts | 223° |
| 2026-04-22 01:44 | 25.09301 | -100.69265 | 26321 ft | 425 kts | 223° |
| 2026-04-22 01:44 | 25.06967 | -100.71271 | 26736 ft | 426 kts | 223° |
| 2026-04-22 01:44 | 25.04626 | -100.73280 | 27123 ft | 428 kts | 223° |
| 2026-04-22 01:44 | 25.02268 | -100.75303 | 27455 ft | 430 kts | 223° |
| 2026-04-22 01:45 | 24.99900 | -100.77334 | 27811 ft | 432 kts | 223° |
| 2026-04-22 01:45 | 24.97521 | -100.79370 | 28141 ft | 434 kts | 223° |
| 2026-04-22 01:45 | 24.95133 | -100.81415 | 28490 ft | 435 kts | 223° |
| 2026-04-22 01:45 | 24.92739 | -100.83466 | 28823 ft | 436 kts | 223° |
| 2026-04-22 01:46 | 24.90342 | -100.85519 | 29151 ft | 438 kts | 223° |
| 2026-04-22 01:46 | 24.87931 | -100.87583 | 29472 ft | 439 kts | 223° |
| 2026-04-22 01:46 | 24.85521 | -100.89646 | 29884 ft | 438 kts | 223° |
| 2026-04-22 01:46 | 24.83118 | -100.91700 | 30363 ft | 436 kts | 223° |
| 2026-04-22 01:47 | 24.80729 | -100.93740 | 30880 ft | 432 kts | 223° |
| 2026-04-22 01:47 | 24.78362 | -100.95759 | 31404 ft | 429 kts | 223° |
| 2026-04-22 01:47 | 24.76013 | -100.97762 | 31854 ft | 427 kts | 223° |
| 2026-04-22 01:47 | 24.73674 | -100.99757 | 32343 ft | 424 kts | 223° |
| 2026-04-22 01:48 | 24.71351 | -101.01738 | 32815 ft | 421 kts | 223° |
| 2026-04-22 01:48 | 24.69044 | -101.03706 | 33267 ft | 418 kts | 223° |
| 2026-04-22 01:48 | 24.66749 | -101.05663 | 33690 ft | 416 kts | 223° |
| 2026-04-22 01:48 | 24.64466 | -101.07608 | 34100 ft | 414 kts | 223° |
| 2026-04-22 01:49 | 24.62197 | -101.09540 | 34471 ft | 413 kts | 223° |
| 2026-04-22 01:49 | 24.59930 | -101.11468 | 34812 ft | 412 kts | 223° |
| 2026-04-22 01:49 | 24.57665 | -101.13396 | 35123 ft | 412 kts | 223° |
| 2026-04-22 01:49 | 24.55402 | -101.15323 | 35492 ft | 411 kts | 222° |
| 2026-04-22 01:50 | 24.53145 | -101.17242 | 35865 ft | 409 kts | 222° |
| 2026-04-22 01:50 | 24.50899 | -101.19151 | 36157 ft | 409 kts | 222° |
| 2026-04-22 01:50 | 24.46353 | -101.23016 | 36162 ft | 415 kts | 222° |
| 2026-04-22 01:51 | 24.42020 | -101.26689 | 36185 ft | 409 kts | 222° |
| 2026-04-22 01:51 | 24.37533 | -101.30491 | 36184 ft | 406 kts | 222° |
| 2026-04-22 01:52 | 24.33063 | -101.34277 | 36197 ft | 406 kts | 222° |
| 2026-04-22 01:52 | 24.28602 | -101.38053 | 36196 ft | 405 kts | 222° |
| 2026-04-22 01:53 | 24.24136 | -101.41832 | 36195 ft | 405 kts | 222° |
| 2026-04-22 01:53 | 24.19691 | -101.45584 | 36197 ft | 406 kts | 222° |
| 2026-04-22 01:54 | 24.14917 | -101.48951 | 36202 ft | 414 kts | 211° |
| 2026-04-22 01:54 | 24.09422 | -101.51060 | 36200 ft | 421 kts | 204° |
| 2026-04-22 01:55 | 24.03822 | -101.52954 | 36210 ft | 422 kts | 204° |
| 2026-04-22 01:55 | 23.98206 | -101.54876 | 36204 ft | 423 kts | 204° |
| 2026-04-22 01:56 | 23.92587 | -101.56816 | 36207 ft | 424 kts | 204° |
| 2026-04-22 01:56 | 23.86958 | -101.58766 | 36213 ft | 425 kts | 204° |
| 2026-04-22 01:57 | 23.81318 | -101.60717 | 36212 ft | 426 kts | 204° |
| 2026-04-22 01:57 | 23.75673 | -101.62667 | 36215 ft | 426 kts | 204° |
| 2026-04-22 01:58 | 23.70026 | -101.64615 | 36223 ft | 426 kts | 204° |
| 2026-04-22 01:58 | 23.64376 | -101.66564 | 36217 ft | 425 kts | 204° |
| 2026-04-22 01:59 | 23.58734 | -101.68509 | 36225 ft | 425 kts | 204° |
| 2026-04-22 01:59 | 23.53102 | -101.70446 | 36230 ft | 424 kts | 203° |
| 2026-04-22 02:00 | 23.47479 | -101.72378 | 36229 ft | 423 kts | 203° |
| 2026-04-22 02:00 | 23.41864 | -101.74307 | 36231 ft | 423 kts | 203° |
| 2026-04-22 02:01 | 23.36253 | -101.76231 | 36241 ft | 423 kts | 203° |
| 2026-04-22 02:01 | 23.30643 | -101.78144 | 36239 ft | 423 kts | 203° |
| 2026-04-22 02:02 | 23.25015 | -101.80059 | 36240 ft | 424 kts | 203° |
| 2026-04-22 02:02 | 23.19373 | -101.81978 | 36250 ft | 425 kts | 203° |
| 2026-04-22 02:03 | 23.13721 | -101.83900 | 36253 ft | 426 kts | 203° |
| 2026-04-22 02:03 | 23.08057 | -101.85825 | 36259 ft | 428 kts | 203° |
| 2026-04-22 02:04 | 22.99513 | -101.88724 | 36261 ft | 430 kts | 202° |
| 2026-04-22 02:05 | 22.93797 | -101.90660 | 36252 ft | 431 kts | 202° |
| 2026-04-22 02:05 | 22.88072 | -101.92598 | 36266 ft | 431 kts | 202° |
| 2026-04-22 02:06 | 22.82342 | -101.94538 | 36266 ft | 432 kts | 202° |
| 2026-04-22 02:06 | 22.76600 | -101.96477 | 36266 ft | 432 kts | 202° |
| 2026-04-22 02:07 | 22.70852 | -101.98421 | 36269 ft | 433 kts | 202° |
| 2026-04-22 02:07 | 22.65095 | -102.00364 | 36266 ft | 434 kts | 202° |
| 2026-04-22 02:08 | 22.59332 | -102.02303 | 36266 ft | 434 kts | 202° |
| 2026-04-22 02:08 | 22.53562 | -102.04240 | 36267 ft | 434 kts | 202° |
| 2026-04-22 02:09 | 22.47788 | -102.06185 | 36267 ft | 434 kts | 202° |
| 2026-04-22 02:09 | 22.42028 | -102.08149 | 36269 ft | 434 kts | 202° |
| 2026-04-22 02:10 | 22.36272 | -102.10107 | 36266 ft | 434 kts | 202° |
| 2026-04-22 02:10 | 22.30500 | -102.12050 | 36269 ft | 434 kts | 202° |
| 2026-04-22 02:11 | 22.24768 | -102.13970 | 36271 ft | 435 kts | 202° |
| 2026-04-22 02:11 | 22.18990 | -102.15904 | 36266 ft | 435 kts | 202° |
| 2026-04-22 02:12 | 22.13205 | -102.17842 | 36267 ft | 435 kts | 202° |
| 2026-04-22 02:12 | 22.07420 | -102.19778 | 36269 ft | 436 kts | 201° |
| 2026-04-22 02:13 | 22.01631 | -102.21714 | 36275 ft | 436 kts | 201° |
| 2026-04-22 02:13 | 21.95844 | -102.23648 | 36266 ft | 436 kts | 201° |
| 2026-04-22 02:13 | 21.92932 | -102.24622 | 35819 ft | 441 kts | 201° |
| 2026-04-22 02:14 | 21.90009 | -102.25597 | 35249 ft | 439 kts | 201° |
| 2026-04-22 02:14 | 21.87088 | -102.26571 | 34602 ft | 440 kts | 201° |
| 2026-04-22 02:14 | 21.84161 | -102.27548 | 33933 ft | 440 kts | 201° |
| 2026-04-22 02:14 | 21.81239 | -102.28522 | 33385 ft | 438 kts | 201° |
| 2026-04-22 02:15 | 21.78341 | -102.29487 | 32900 ft | 434 kts | 201° |
| 2026-04-22 02:15 | 21.75462 | -102.30445 | 32416 ft | 431 kts | 202° |
| 2026-04-22 02:15 | 21.72638 | -102.31472 | 31920 ft | 425 kts | 207° |
| 2026-04-22 02:15 | 21.70023 | -102.32880 | 31465 ft | 417 kts | 215° |
| 2026-04-22 02:16 | 21.68442 | -102.34026 | 31144 ft | 411 kts | 221° |
| 2026-04-22 02:16 | 21.66209 | -102.35921 | 30695 ft | 408 kts | 223° |
| 2026-04-22 02:16 | 21.64000 | -102.37818 | 30229 ft | 405 kts | 223° |
| 2026-04-22 02:16 | 21.61803 | -102.39702 | 29769 ft | 402 kts | 223° |
| 2026-04-22 02:17 | 21.59625 | -102.41561 | 29285 ft | 399 kts | 222° |
| 2026-04-22 02:17 | 21.57451 | -102.43406 | 28823 ft | 397 kts | 222° |
| 2026-04-22 02:17 | 21.55290 | -102.45233 | 28346 ft | 394 kts | 222° |
| 2026-04-22 02:17 | 21.53143 | -102.47045 | 27882 ft | 390 kts | 222° |
| 2026-04-22 02:18 | 21.51011 | -102.48839 | 27420 ft | 388 kts | 221° |
| 2026-04-22 02:18 | 21.48909 | -102.50644 | 26974 ft | 386 kts | 222° |
| 2026-04-22 02:18 | 21.46807 | -102.52436 | 26514 ft | 385 kts | 221° |
| 2026-04-22 02:18 | 21.44684 | -102.54163 | 26037 ft | 382 kts | 218° |
| 2026-04-22 02:19 | 21.42529 | -102.55810 | 25584 ft | 379 kts | 222° |
| 2026-04-22 02:19 | 21.40532 | -102.57611 | 25150 ft | 372 kts | 223° |
| 2026-04-22 02:19 | 21.38540 | -102.59370 | 24690 ft | 372 kts | 222° |
| 2026-04-22 02:19 | 21.36501 | -102.61093 | 24311 ft | 370 kts | 221° |
| 2026-04-22 02:20 | 21.34517 | -102.62805 | 24321 ft | 364 kts | 221° |
| 2026-04-22 02:20 | 21.32511 | -102.64438 | 24269 ft | 359 kts | 219° |
| 2026-04-22 02:20 | 21.30568 | -102.66021 | 24277 ft | 340 kts | 221° |
| 2026-04-22 02:20 | 21.28741 | -102.67563 | 24251 ft | 329 kts | 221° |
| 2026-04-22 02:21 | 21.26953 | -102.69038 | 24249 ft | 318 kts | 219° |
| 2026-04-22 02:21 | 21.25192 | -102.70453 | 23901 ft | 319 kts | 224° |
| 2026-04-22 02:21 | 21.23489 | -102.72026 | 23361 ft | 322 kts | 219° |
| 2026-04-22 02:21 | 21.21684 | -102.73480 | 22840 ft | 327 kts | 220° |
| 2026-04-22 02:22 | 21.19859 | -102.74985 | 22258 ft | 336 kts | 220° |
| 2026-04-22 02:22 | 21.18007 | -102.76547 | 21664 ft | 341 kts | 219° |
| 2026-04-22 02:22 | 21.16163 | -102.78096 | 21041 ft | 342 kts | 221° |
| 2026-04-22 02:22 | 21.14285 | -102.79654 | 20412 ft | 341 kts | 219° |
| 2026-04-22 02:23 | 21.12261 | -102.80958 | 19750 ft | 345 kts | 198° |
| 2026-04-22 02:23 | 21.09903 | -102.81415 | 19176 ft | 346 kts | 183° |
| 2026-04-22 02:23 | 21.07502 | -102.81222 | 18552 ft | 345 kts | 173° |
| 2026-04-22 02:23 | 21.05141 | -102.80875 | 17908 ft | 342 kts | 174° |
| 2026-04-22 02:24 | 21.02767 | -102.80486 | 17272 ft | 340 kts | 173° |
| 2026-04-22 02:24 | 21.00470 | -102.80074 | 16665 ft | 339 kts | 171° |
| 2026-04-22 02:24 | 20.98126 | -102.79705 | 16049 ft | 336 kts | 179° |
| 2026-04-22 02:24 | 20.95850 | -102.80011 | 15778 ft | 332 kts | 194° |
| 2026-04-22 02:25 | 20.93617 | -102.80727 | 15529 ft | 339 kts | 201° |
| 2026-04-22 02:25 | 20.91395 | -102.81649 | 15282 ft | 344 kts | 202° |
| 2026-04-22 02:25 | 20.89132 | -102.82530 | 15004 ft | 348 kts | 201° |
| 2026-04-22 02:25 | 20.86854 | -102.83411 | 14756 ft | 346 kts | 201° |
| 2026-04-22 02:26 | 20.84644 | -102.84271 | 14473 ft | 332 kts | 201° |
| 2026-04-22 02:26 | 20.82526 | -102.85104 | 14271 ft | 316 kts | 203° |
| 2026-04-22 02:26 | 20.80503 | -102.85933 | 13945 ft | 309 kts | 201° |
| 2026-04-22 02:26 | 20.78513 | -102.86692 | 13594 ft | 299 kts | 201° |
| 2026-04-22 02:27 | 20.76617 | -102.87509 | 13243 ft | 291 kts | 202° |
| 2026-04-22 02:27 | 20.74710 | -102.88256 | 12917 ft | 293 kts | 200° |
| 2026-04-22 02:27 | 20.72770 | -102.88952 | 12586 ft | 295 kts | 201° |
| 2026-04-22 02:27 | 20.70817 | -102.89667 | 12182 ft | 301 kts | 200° |
| 2026-04-22 02:28 | 20.68844 | -102.90444 | 11813 ft | 300 kts | 202° |
| 2026-04-22 02:28 | 20.66882 | -102.91235 | 11441 ft | 304 kts | 201° |
| 2026-04-22 02:28 | 20.64909 | -102.92034 | 11064 ft | 298 kts | 201° |
| 2026-04-22 02:28 | 20.62995 | -102.92803 | 10756 ft | 288 kts | 200° |
| 2026-04-22 02:29 | 20.61144 | -102.93503 | 10608 ft | 277 kts | 199° |
| 2026-04-22 02:29 | 20.59387 | -102.94155 | 10521 ft | 261 kts | 201° |
| 2026-04-22 02:29 | 20.57690 | -102.94811 | 10471 ft | 255 kts | 201° |
| 2026-04-22 02:29 | 20.56099 | -102.95491 | 10354 ft | 239 kts | 203° |
| 2026-04-22 02:30 | 20.54571 | -102.96054 | 10248 ft | 228 kts | 200° |
| 2026-04-22 02:30 | 20.53127 | -102.96574 | 10149 ft | 212 kts | 200° |
| 2026-04-22 02:30 | 20.51747 | -102.97108 | 10071 ft | 207 kts | 202° |
| 2026-04-22 02:30 | 20.50402 | -102.97646 | 9982 ft | 208 kts | 201° |
| 2026-04-22 02:31 | 20.49035 | -102.98160 | 9914 ft | 209 kts | 200° |
| 2026-04-22 02:31 | 20.47667 | -102.98674 | 9817 ft | 209 kts | 200° |
| 2026-04-22 02:31 | 20.46284 | -102.99174 | 9734 ft | 211 kts | 201° |
| 2026-04-22 02:31 | 20.44919 | -102.99709 | 9640 ft | 207 kts | 200° |
| 2026-04-22 02:32 | 20.43550 | -103.00207 | 9454 ft | 210 kts | 200° |
| 2026-04-22 02:32 | 20.42189 | -103.00789 | 9248 ft | 209 kts | 205° |
| 2026-04-22 02:32 | 20.41067 | -103.01698 | 9004 ft | 201 kts | 237° |
| 2026-04-22 02:32 | 20.40702 | -103.03056 | 8938 ft | 191 kts | 271° |
| 2026-04-22 02:33 | 20.40947 | -103.04467 | 8877 ft | 199 kts | 288° |
| 2026-04-22 02:33 | 20.41485 | -103.05854 | 8791 ft | 206 kts | 293° |
| 2026-04-22 02:33 | 20.42062 | -103.07231 | 8637 ft | 206 kts | 293° |
| 2026-04-22 02:33 | 20.42659 | -103.08640 | 8473 ft | 203 kts | 295° |
| 2026-04-22 02:34 | 20.43265 | -103.09978 | 8291 ft | 203 kts | 294° |
| 2026-04-22 02:34 | 20.43884 | -103.11321 | 8109 ft | 195 kts | 295° |
| 2026-04-22 02:34 | 20.44438 | -103.12573 | 7985 ft | 176 kts | 294° |
| 2026-04-22 02:34 | 20.44933 | -103.13741 | 7874 ft | 176 kts | 293° |
| 2026-04-22 02:35 | 20.45425 | -103.14917 | 7702 ft | 173 kts | 293° |
| 2026-04-22 02:35 | 20.45903 | -103.16063 | 7489 ft | 169 kts | 293° |
| 2026-04-22 02:35 | 20.46377 | -103.17202 | 7281 ft | 167 kts | 293° |
| 2026-04-22 02:35 | 20.46845 | -103.18322 | 7084 ft | 162 kts | 291° |
| 2026-04-22 02:36 | 20.47295 | -103.19404 | 6879 ft | 158 kts | 291° |
| 2026-04-22 02:36 | 20.47747 | -103.20487 | 6683 ft | 163 kts | 291° |
| 2026-04-22 02:36 | 20.48209 | -103.21614 | 6485 ft | 167 kts | 294° |
| 2026-04-22 02:36 | 20.48688 | -103.22748 | 6271 ft | 164 kts | 290° |
| 2026-04-22 02:37 | 20.49139 | -103.23826 | 6073 ft | 157 kts | 290° |
| 2026-04-22 02:37 | 20.49581 | -103.24889 | 5880 ft | 155 kts | 290° |
| 2026-04-22 02:37 | 20.50020 | -103.25942 | 5680 ft | 156 kts | 291° |
| 2026-04-22 02:37 | 20.50454 | -103.26984 | 5500 ft | 156 kts | 291° |
| 2026-04-22 02:38 | 20.50911 | -103.28041 | 5293 ft | 151 kts | 296° |
| 2026-04-22 02:38 | 20.51362 | -103.29020 | 5134 ft | 149 kts | 291° |
| 2026-04-22 02:38 | 20.51730 | -103.30068 | 5028 ft | 149 kts | 297° |
| 2026-04-22 02:38 | 20.52103 | -103.30906 | 5027 ft | 98 kts | 294° |
| 2026-04-22 02:39 | 20.52300 | -103.31381 | 5030 ft | 42 kts | 298° |
| 2026-04-22 02:39 | 20.52455 | -103.31552 | 5028 ft | 30 kts | 323° |
| 2026-04-22 02:39 | 20.52564 | -103.31584 | 5027 ft | 10 kts | 16° |
| 2026-04-22 02:39 | 20.52633 | -103.31559 | 5026 ft | 11 kts | 22° |
| 2026-04-22 02:40 | 20.52707 | -103.31523 | 5027 ft | 12 kts | 25° |
| 2026-04-22 02:40 | 20.52766 | -103.31465 | 5028 ft | 12 kts | 84° |
| 2026-04-22 02:40 | 20.52739 | -103.31378 | 5028 ft | 13 kts | 112° |
| 2026-04-22 02:40 | 20.52696 | -103.31288 | 5028 ft | 14 kts | 115° |
| 2026-04-22 02:41 | 20.52647 | -103.31175 | 5026 ft | 20 kts | 114° |
| 2026-04-22 02:41 | 20.52590 | -103.31036 | 5028 ft | 20 kts | 114° |
| 2026-04-22 02:41 | 20.52533 | -103.30901 | 5028 ft | 20 kts | 114° |
| 2026-04-22 02:41 | 20.52478 | -103.30771 | 5028 ft | 19 kts | 114° |
| 2026-04-22 02:42 | 20.52427 | -103.30644 | 5028 ft | 18 kts | 113° |
| 2026-04-22 02:42 | 20.52375 | -103.30524 | 5028 ft | 16 kts | 115° |
| 2026-04-22 02:42 | 20.52363 | -103.30445 | 5028 ft | 11 kts | 47° |
| 2026-04-22 02:42 | 20.52430 | -103.30411 | 5025 ft | 11 kts | 19° |
| 2026-04-22 02:43 | 20.52465 | -103.30400 | 5028 ft | 4 kts | 8° |
| 2026-04-22 02:43 | 20.52494 | -103.30395 | 5026 ft | 4 kts | 13° |
| 2026-04-22 02:43 | 20.52520 | -103.30386 | 5028 ft | 2 kts | 18° |
| 2026-04-22 02:43 | 20.52521 | -103.30386 | 5028 ft | 0 kts | 18° |